PWSweather.com
Personal Weather Stations
Station Observations
133525
French Quarters West Seneca , West Seneca, NY 14224

French Quarters West Seneca West Seneca, NY 14224

Lat: 42.850058, Lon: -78.799754

Elevation: 603

Station Type: Davis Vantage Vue pro2

http://westsenecaweather.com/

High Low Average
Temperature 41.4°F5.2°C 31.6°F-0.2°C 35.9°F2.2°C
Dew Point 36.3°F2.4°C 30.6°F-0.8°C 32.8°F0.4°C
Winds 12.7 mph 20.4 kmh Calm Calm 6.0 mph SSW9.7 kmh SSW
Wind Gusts 19.6 mph31.5 kmh -- 10.0 mph16.1 kmh
Humidity 96% 80% 88%
Pressure 29.94 in1013.9 mb 29.62 in1003.0 mb -
Precipitation 0.02 in0.5 mm - -
Hour Temp Dew Point Humidity Winds Wind Gusts Pressure Precip Precip Rate Daily Precip Total
12:00 AM 40.1°F4.5°C 37.7°F3.2°C 91% 1.2 mph NNW1.9 kmh NNW 2.3 mph3.7 kmh 29.87 in1011.5 mb - 0.00 in0.0 mm 0.04 in1.0 mm
12:10 AM 40.1°F4.5°C 37.7°F3.2°C 91% 1.2 mph NW1.9 kmh NW 1.2 mph1.9 kmh 29.87 in1011.5 mb - 0.00 in0.0 mm 0.04 in1.0 mm
12:20 AM 40.1°F4.5°C 37.7°F3.2°C 91% Calm Calm -- 29.87 in1011.5 mb - 0.00 in0.0 mm 0.04 in1.0 mm
12:30 AM 39.9°F4.4°C 37.5°F3.1°C 91% Calm Calm -- 29.88 in1011.9 mb - 0.00 in0.0 mm 0.04 in1.0 mm
12:40 AM 39.9°F4.4°C 37.5°F3.1°C 91% 3.5 mph ESE5.6 kmh ESE 3.5 mph5.6 kmh 29.88 in1011.9 mb - 0.00 in0.0 mm 0.04 in1.0 mm
12:50 AM 41.0°F5.0°C 36.8°F2.7°C 85% 3.5 mph SE5.6 kmh SE 6.9 mph11.1 kmh 29.88 in1011.9 mb - 0.00 in0.0 mm 0.04 in1.0 mm
01:00 AM 41.4°F5.2°C 36.3°F2.4°C 82% 4.6 mph NNE7.4 kmh NNE 6.9 mph11.1 kmh 29.89 in1012.2 mb - 0.00 in0.0 mm 0.00 in0.0 mm
01:10 AM 41.3°F5.2°C 36.2°F2.3°C 82% 5.8 mph SE9.3 kmh SE 6.9 mph11.1 kmh 29.89 in1012.2 mb - 0.00 in0.0 mm 0.00 in0.0 mm
01:20 AM 40.7°F4.8°C 35.6°F2.0°C 82% 3.5 mph SSE5.6 kmh SSE 6.9 mph11.1 kmh 29.89 in1012.2 mb - 0.00 in0.0 mm 0.00 in0.0 mm
01:30 AM 40.0°F4.4°C 35.3°F1.8°C 83% 3.5 mph N5.6 kmh N 6.9 mph11.1 kmh 29.89 in1012.2 mb - 0.00 in0.0 mm 0.00 in0.0 mm
01:40 AM 39.5°F4.2°C 35.1°F1.7°C 84% 4.6 mph E7.4 kmh E 5.8 mph9.3 kmh 29.89 in1012.2 mb - 0.00 in0.0 mm 0.00 in0.0 mm
01:50 AM 39.1°F3.9°C 35.0°F1.7°C 85% 1.2 mph SE1.9 kmh SE 3.5 mph5.6 kmh 29.90 in1012.5 mb - 0.00 in0.0 mm 0.00 in0.0 mm
02:00 AM 38.4°F3.6°C 34.6°F1.4°C 86% 3.5 mph N5.6 kmh N 4.6 mph7.4 kmh 29.90 in1012.5 mb - 0.00 in0.0 mm 0.00 in0.0 mm
02:10 AM 37.8°F3.2°C 34.3°F1.3°C 87% 2.3 mph SE3.7 kmh SE 3.5 mph5.6 kmh 29.90 in1012.5 mb - 0.00 in0.0 mm 0.00 in0.0 mm
02:20 AM 37.1°F2.8°C 33.9°F1.1°C 88% 4.6 mph SSE7.4 kmh SSE 5.8 mph9.3 kmh 29.91 in1012.9 mb - 0.00 in0.0 mm 0.00 in0.0 mm
02:30 AM 36.7°F2.6°C 33.8°F1.0°C 89% 3.5 mph SSE5.6 kmh SSE 4.6 mph7.4 kmh 29.91 in1012.9 mb - 0.00 in0.0 mm 0.00 in0.0 mm
02:40 AM 36.5°F2.5°C 33.8°F1.0°C 90% 3.5 mph SSE5.6 kmh SSE 5.8 mph9.3 kmh 29.92 in1013.2 mb - 0.00 in0.0 mm 0.00 in0.0 mm
02:50 AM 36.4°F2.4°C 34.0°F1.1°C 91% 3.5 mph SE5.6 kmh SE 4.6 mph7.4 kmh 29.92 in1013.2 mb - 0.00 in0.0 mm 0.00 in0.0 mm
03:00 AM 36.3°F2.4°C 33.9°F1.1°C 91% 6.9 mph SSE11.1 kmh SSE 10.4 mph16.7 kmh 29.92 in1013.2 mb - 0.00 in0.0 mm 0.00 in0.0 mm
03:10 AM 36.2°F2.3°C 34.1°F1.2°C 92% 2.3 mph SSE3.7 kmh SSE 4.6 mph7.4 kmh 29.92 in1013.2 mb - 0.00 in0.0 mm 0.00 in0.0 mm
03:20 AM 36.2°F2.3°C 34.1°F1.2°C 92% 3.5 mph S5.6 kmh S 4.6 mph7.4 kmh 29.92 in1013.2 mb - 0.00 in0.0 mm 0.00 in0.0 mm
03:30 AM 36.2°F2.3°C 34.1°F1.2°C 92% 2.3 mph S3.7 kmh S 3.5 mph5.6 kmh 29.92 in1013.2 mb - 0.00 in0.0 mm 0.00 in0.0 mm
03:40 AM 36.2°F2.3°C 34.1°F1.2°C 92% 4.6 mph SSE7.4 kmh SSE 4.6 mph7.4 kmh 29.91 in1012.9 mb - 0.00 in0.0 mm 0.00 in0.0 mm
03:50 AM 36.2°F2.3°C 34.1°F1.2°C 92% 4.6 mph S7.4 kmh S 5.8 mph9.3 kmh 29.91 in1012.9 mb - 0.00 in0.0 mm 0.00 in0.0 mm
04:00 AM 36.3°F2.4°C 34.2°F1.2°C 92% 3.5 mph SSE5.6 kmh SSE 8.1 mph13.0 kmh 29.91 in1012.9 mb - 0.00 in0.0 mm 0.00 in0.0 mm
04:10 AM 36.3°F2.4°C 34.2°F1.2°C 92% 4.6 mph SSW7.4 kmh SSW 4.6 mph7.4 kmh 29.91 in1012.9 mb - 0.00 in0.0 mm 0.00 in0.0 mm
04:20 AM 36.3°F2.4°C 34.2°F1.2°C 92% 4.6 mph S7.4 kmh S 8.1 mph13.0 kmh 29.90 in1012.5 mb - 0.00 in0.0 mm 0.00 in0.0 mm
04:30 AM 36.2°F2.3°C 33.8°F1.0°C 91% 6.9 mph S11.1 kmh S 6.9 mph11.1 kmh 29.90 in1012.5 mb - 0.00 in0.0 mm 0.00 in0.0 mm
04:40 AM 36.2°F2.3°C 33.8°F1.0°C 91% 4.6 mph S7.4 kmh S 6.9 mph11.1 kmh 29.91 in1012.9 mb - 0.00 in0.0 mm 0.00 in0.0 mm
04:50 AM 36.3°F2.4°C 33.9°F1.1°C 91% 3.5 mph SSE5.6 kmh SSE 3.5 mph5.6 kmh 29.91 in1012.9 mb - 0.00 in0.0 mm 0.00 in0.0 mm
05:00 AM 36.2°F2.3°C 33.8°F1.0°C 91% 4.6 mph S7.4 kmh S 6.9 mph11.1 kmh 29.90 in1012.5 mb - 0.00 in0.0 mm 0.00 in0.0 mm
05:10 AM 36.2°F2.3°C 33.5°F0.8°C 90% 4.6 mph S7.4 kmh S 5.8 mph9.3 kmh 29.91 in1012.9 mb - 0.00 in0.0 mm 0.00 in0.0 mm
05:20 AM 36.2°F2.3°C 33.5°F0.8°C 90% 2.3 mph S3.7 kmh S 4.6 mph7.4 kmh 29.92 in1013.2 mb - 0.00 in0.0 mm 0.00 in0.0 mm
05:30 AM 36.3°F2.4°C 33.6°F0.9°C 90% 2.3 mph S3.7 kmh S 3.5 mph5.6 kmh 29.93 in1013.5 mb - 0.00 in0.0 mm 0.00 in0.0 mm
05:40 AM 36.3°F2.4°C 33.6°F0.9°C 90% 2.3 mph SSE3.7 kmh SSE 3.5 mph5.6 kmh 29.93 in1013.5 mb - 0.00 in0.0 mm 0.00 in0.0 mm
05:50 AM 36.2°F2.3°C 33.5°F0.8°C 90% 5.8 mph S9.3 kmh S 9.2 mph14.8 kmh 29.92 in1013.2 mb - 0.00 in0.0 mm 0.00 in0.0 mm
06:00 AM 36.2°F2.3°C 33.5°F0.8°C 90% 2.3 mph S3.7 kmh S 3.5 mph5.6 kmh 29.93 in1013.5 mb - 0.00 in0.0 mm 0.00 in0.0 mm
06:10 AM 36.2°F2.3°C 33.5°F0.8°C 90% 2.3 mph SE3.7 kmh SE 3.5 mph5.6 kmh 29.94 in1013.9 mb - 0.00 in0.0 mm 0.00 in0.0 mm
06:20 AM 36.1°F2.3°C 33.5°F0.8°C 90% 4.6 mph SSE7.4 kmh SSE 6.9 mph11.1 kmh 29.93 in1013.5 mb - 0.00 in0.0 mm 0.00 in0.0 mm
06:30 AM 36.1°F2.3°C 33.5°F0.8°C 90% 4.6 mph SSE7.4 kmh SSE 6.9 mph11.1 kmh 29.93 in1013.5 mb - 0.00 in0.0 mm 0.00 in0.0 mm
06:40 AM 35.9°F2.2°C 33.3°F0.7°C 90% 4.6 mph S7.4 kmh S 8.1 mph13.0 kmh 29.91 in1012.9 mb - 0.00 in0.0 mm 0.00 in0.0 mm
06:50 AM 35.7°F2.1°C 33.3°F0.7°C 91% 5.8 mph SSE9.3 kmh SSE 10.4 mph16.7 kmh 29.90 in1012.5 mb - 0.00 in0.0 mm 0.00 in0.0 mm
07:00 AM 35.5°F1.9°C 33.1°F0.6°C 91% 4.6 mph SW7.4 kmh SW 9.2 mph14.8 kmh 29.91 in1012.9 mb - 0.00 in0.0 mm 0.00 in0.0 mm
07:10 AM 35.5°F1.9°C 33.1°F0.6°C 91% 2.3 mph S3.7 kmh S 4.6 mph7.4 kmh 29.91 in1012.9 mb - 0.00 in0.0 mm 0.00 in0.0 mm
07:20 AM 35.6°F2.0°C 33.5°F0.8°C 92% 4.6 mph N7.4 kmh N 6.9 mph11.1 kmh 29.92 in1013.2 mb - 0.00 in0.0 mm 0.00 in0.0 mm
07:30 AM 35.6°F2.0°C 33.5°F0.8°C 92% 4.6 mph S7.4 kmh S 5.8 mph9.3 kmh 29.91 in1012.9 mb - 0.00 in0.0 mm 0.00 in0.0 mm
07:40 AM 35.7°F2.1°C 33.6°F0.9°C 92% 5.8 mph NW9.3 kmh NW 8.1 mph13.0 kmh 29.92 in1013.2 mb - 0.00 in0.0 mm 0.00 in0.0 mm
07:50 AM 35.8°F2.1°C 33.7°F0.9°C 92% 2.3 mph S3.7 kmh S 3.5 mph5.6 kmh 29.92 in1013.2 mb - 0.00 in0.0 mm 0.00 in0.0 mm
08:00 AM 35.8°F2.1°C 33.7°F0.9°C 92% 6.9 mph SW11.1 kmh SW 9.2 mph14.8 kmh 29.92 in1013.2 mb - 0.00 in0.0 mm 0.00 in0.0 mm
08:10 AM 35.8°F2.1°C 33.7°F0.9°C 92% 5.8 mph SW9.3 kmh SW 6.9 mph11.1 kmh 29.91 in1012.9 mb - 0.00 in0.0 mm 0.00 in0.0 mm
08:20 AM 35.9°F2.2°C 33.8°F1.0°C 92% 5.8 mph SSW9.3 kmh SSW 8.1 mph13.0 kmh 29.91 in1012.9 mb - 0.00 in0.0 mm 0.00 in0.0 mm
08:30 AM 35.8°F2.1°C 33.7°F0.9°C 92% 5.8 mph WNW9.3 kmh WNW 13.8 mph22.2 kmh 29.90 in1012.5 mb - 0.00 in0.0 mm 0.00 in0.0 mm
08:40 AM 35.9°F2.2°C 33.8°F1.0°C 92% 5.8 mph SSW9.3 kmh SSW 11.5 mph18.5 kmh 29.90 in1012.5 mb - 0.00 in0.0 mm 0.00 in0.0 mm
08:50 AM 36.0°F2.2°C 33.6°F0.9°C 91% 5.8 mph N9.3 kmh N 11.5 mph18.5 kmh 29.90 in1012.5 mb - 0.00 in0.0 mm 0.00 in0.0 mm
09:00 AM 36.1°F2.3°C 33.7°F0.9°C 91% 6.9 mph SW11.1 kmh SW 10.4 mph16.7 kmh 29.90 in1012.5 mb - 0.00 in0.0 mm 0.00 in0.0 mm
09:10 AM 36.4°F2.4°C 33.7°F0.9°C 90% 4.6 mph S7.4 kmh S 11.5 mph18.5 kmh 29.92 in1013.2 mb - 0.00 in0.0 mm 0.00 in0.0 mm
09:20 AM 36.4°F2.4°C 33.7°F0.9°C 90% 4.6 mph SW7.4 kmh SW 6.9 mph11.1 kmh 29.93 in1013.5 mb - 0.00 in0.0 mm 0.00 in0.0 mm
09:30 AM 36.5°F2.5°C 33.8°F1.0°C 90% 5.8 mph SSW9.3 kmh SSW 6.9 mph11.1 kmh 29.92 in1013.2 mb - 0.00 in0.0 mm 0.00 in0.0 mm
09:40 AM 36.5°F2.5°C 33.6°F0.9°C 89% 5.8 mph W9.3 kmh W 10.4 mph16.7 kmh 29.91 in1012.9 mb - 0.00 in0.0 mm 0.00 in0.0 mm
09:50 AM 36.6°F2.6°C 33.7°F0.9°C 89% 5.8 mph S9.3 kmh S 6.9 mph11.1 kmh 29.93 in1013.5 mb - 0.00 in0.0 mm 0.00 in0.0 mm
10:00 AM 36.5°F2.5°C 33.6°F0.9°C 89% 4.6 mph SW7.4 kmh SW 6.9 mph11.1 kmh 29.93 in1013.5 mb - 0.00 in0.0 mm 0.00 in0.0 mm
10:10 AM 36.6°F2.6°C 33.7°F0.9°C 89% 4.6 mph SW7.4 kmh SW 4.6 mph7.4 kmh 29.93 in1013.5 mb - 0.00 in0.0 mm 0.00 in0.0 mm
10:20 AM 36.4°F2.4°C 33.2°F0.7°C 88% 8.1 mph SSW13.0 kmh SSW 11.5 mph18.5 kmh 29.92 in1013.2 mb - 0.00 in0.0 mm 0.00 in0.0 mm
10:30 AM 36.5°F2.5°C 33.3°F0.7°C 88% 3.5 mph SSW5.6 kmh SSW 6.9 mph11.1 kmh 29.92 in1013.2 mb - 0.00 in0.0 mm 0.00 in0.0 mm
10:40 AM 36.5°F2.5°C 33.3°F0.7°C 88% 3.5 mph SSW5.6 kmh SSW 4.6 mph7.4 kmh 29.92 in1013.2 mb - 0.00 in0.0 mm 0.00 in0.0 mm
10:50 AM 36.6°F2.6°C 33.4°F0.8°C 88% 6.9 mph SW11.1 kmh SW 10.4 mph16.7 kmh 29.93 in1013.5 mb - 0.00 in0.0 mm 0.00 in0.0 mm
11:00 AM 36.7°F2.6°C 33.5°F0.8°C 88% 4.6 mph S7.4 kmh S 9.2 mph14.8 kmh 29.91 in1012.9 mb - 0.00 in0.0 mm 0.00 in0.0 mm
11:10 AM 36.6°F2.6°C 33.4°F0.8°C 88% 8.1 mph SW13.0 kmh SW 10.4 mph16.7 kmh 29.91 in1012.9 mb - 0.00 in0.0 mm 0.00 in0.0 mm
11:20 AM 36.6°F2.6°C 33.4°F0.8°C 88% 5.8 mph N9.3 kmh N 11.5 mph18.5 kmh 29.90 in1012.5 mb - 0.00 in0.0 mm 0.00 in0.0 mm
11:30 AM 36.7°F2.6°C 33.5°F0.8°C 88% 4.6 mph SW7.4 kmh SW 6.9 mph11.1 kmh 29.90 in1012.5 mb - 0.00 in0.0 mm 0.00 in0.0 mm
11:40 AM 36.7°F2.6°C 33.5°F0.8°C 88% 8.1 mph SW13.0 kmh SW 9.2 mph14.8 kmh 29.90 in1012.5 mb - 0.00 in0.0 mm 0.00 in0.0 mm
11:50 AM 36.8°F2.7°C 33.3°F0.7°C 87% 5.8 mph SW9.3 kmh SW 9.2 mph14.8 kmh 29.89 in1012.2 mb - 0.00 in0.0 mm 0.00 in0.0 mm
12:00 PM 36.7°F2.6°C 33.2°F0.7°C 87% 9.2 mph N14.8 kmh N 16.1 mph25.9 kmh 29.89 in1012.2 mb - 0.00 in0.0 mm 0.00 in0.0 mm
12:10 PM 37.0°F2.8°C 33.5°F0.8°C 87% 3.5 mph S5.6 kmh S 5.8 mph9.3 kmh 29.89 in1012.2 mb - 0.00 in0.0 mm 0.00 in0.0 mm
12:20 PM 37.1°F2.8°C 33.3°F0.7°C 86% 3.5 mph NW5.6 kmh NW 10.4 mph16.7 kmh 29.89 in1012.2 mb - 0.00 in0.0 mm 0.00 in0.0 mm
12:30 PM 37.0°F2.8°C 33.2°F0.7°C 86% 9.2 mph N14.8 kmh N 12.7 mph20.4 kmh 29.88 in1011.9 mb - 0.00 in0.0 mm 0.00 in0.0 mm
12:40 PM 37.3°F2.9°C 33.5°F0.8°C 86% 8.1 mph N13.0 kmh N 12.7 mph20.4 kmh 29.87 in1011.5 mb - 0.00 in0.0 mm 0.00 in0.0 mm
12:50 PM 37.3°F2.9°C 33.5°F0.8°C 86% 5.8 mph WNW9.3 kmh WNW 12.7 mph20.4 kmh 29.88 in1011.9 mb - 0.00 in0.0 mm 0.00 in0.0 mm
01:00 PM 37.0°F2.8°C 33.2°F0.7°C 86% 8.1 mph SSW13.0 kmh SSW 12.7 mph20.4 kmh 29.88 in1011.9 mb - 0.00 in0.0 mm 0.00 in0.0 mm
01:10 PM 36.9°F2.7°C 33.1°F0.6°C 86% 9.2 mph S14.8 kmh S 13.8 mph22.2 kmh 29.88 in1011.9 mb - 0.00 in0.0 mm 0.00 in0.0 mm
01:20 PM 37.0°F2.8°C 33.2°F0.7°C 86% 9.2 mph S14.8 kmh S 13.8 mph22.2 kmh 29.88 in1011.9 mb - 0.00 in0.0 mm 0.00 in0.0 mm
01:30 PM 36.9°F2.7°C 33.1°F0.6°C 86% 11.5 mph SSW18.5 kmh SSW 16.1 mph25.9 kmh 29.87 in1011.5 mb - 0.00 in0.0 mm 0.00 in0.0 mm
01:40 PM 36.8°F2.7°C 33.0°F0.6°C 86% 6.9 mph S11.1 kmh S 8.1 mph13.0 kmh 29.87 in1011.5 mb - 0.00 in0.0 mm 0.00 in0.0 mm
01:50 PM 36.8°F2.7°C 33.0°F0.6°C 86% 9.2 mph S14.8 kmh S 18.4 mph29.6 kmh 29.85 in1010.8 mb - 0.00 in0.0 mm 0.00 in0.0 mm
02:00 PM 37.1°F2.8°C 33.3°F0.7°C 86% 9.2 mph N14.8 kmh N 17.3 mph27.8 kmh 29.84 in1010.5 mb - 0.00 in0.0 mm 0.00 in0.0 mm
02:10 PM 37.4°F3.0°C 33.0°F0.6°C 84% 8.1 mph N13.0 kmh N 11.5 mph18.5 kmh 29.84 in1010.5 mb - 0.00 in0.0 mm 0.00 in0.0 mm
02:20 PM 37.5°F3.1°C 32.8°F0.4°C 83% 10.4 mph SW16.7 kmh SW 13.8 mph22.2 kmh 29.83 in1010.2 mb - 0.00 in0.0 mm 0.00 in0.0 mm
02:30 PM 37.5°F3.1°C 32.8°F0.4°C 83% 9.2 mph SW14.8 kmh SW 11.5 mph18.5 kmh 29.83 in1010.2 mb - 0.00 in0.0 mm 0.00 in0.0 mm
02:40 PM 37.5°F3.1°C 32.8°F0.4°C 83% 9.2 mph NNW14.8 kmh NNW 11.5 mph18.5 kmh 29.82 in1009.8 mb - 0.00 in0.0 mm 0.00 in0.0 mm
02:50 PM 37.5°F3.1°C 32.8°F0.4°C 83% 10.4 mph SW16.7 kmh SW 16.1 mph25.9 kmh 29.81 in1009.5 mb - 0.00 in0.0 mm 0.00 in0.0 mm
03:00 PM 37.8°F3.2°C 33.1°F0.6°C 83% 6.9 mph NNW11.1 kmh NNW 8.1 mph13.0 kmh 29.81 in1009.5 mb - 0.00 in0.0 mm 0.00 in0.0 mm
03:10 PM 37.9°F3.3°C 32.6°F0.3°C 81% 8.1 mph SSW13.0 kmh SSW 11.5 mph18.5 kmh 29.80 in1009.1 mb - 0.00 in0.0 mm 0.00 in0.0 mm
03:20 PM 37.8°F3.2°C 32.5°F0.3°C 81% 8.1 mph S13.0 kmh S 11.5 mph18.5 kmh 29.80 in1009.1 mb - 0.00 in0.0 mm 0.00 in0.0 mm
03:30 PM 37.7°F3.2°C 32.4°F0.2°C 81% 6.9 mph SW11.1 kmh SW 10.4 mph16.7 kmh 29.79 in1008.8 mb - 0.00 in0.0 mm 0.00 in0.0 mm
03:40 PM 37.8°F3.2°C 32.5°F0.3°C 81% 6.9 mph SSW11.1 kmh SSW 8.1 mph13.0 kmh 29.79 in1008.8 mb - 0.00 in0.0 mm 0.00 in0.0 mm
03:50 PM 37.6°F3.1°C 32.3°F0.2°C 81% 6.9 mph SSW11.1 kmh SSW 11.5 mph18.5 kmh 29.78 in1008.5 mb - 0.00 in0.0 mm 0.00 in0.0 mm
04:00 PM 37.4°F3.0°C 32.1°F0.1°C 81% 8.1 mph SW13.0 kmh SW 10.4 mph16.7 kmh 29.78 in1008.5 mb - 0.00 in0.0 mm 0.00 in0.0 mm
04:10 PM 37.4°F3.0°C 32.1°F0.1°C 81% 8.1 mph S13.0 kmh S 13.8 mph22.2 kmh 29.77 in1008.1 mb - 0.00 in0.0 mm 0.00 in0.0 mm
04:20 PM 37.3°F2.9°C 32.0°F0.0°C 81% 8.1 mph SSW13.0 kmh SSW 16.1 mph25.9 kmh 29.76 in1007.8 mb - 0.00 in0.0 mm 0.00 in0.0 mm
04:30 PM 37.3°F2.9°C 32.0°F0.0°C 81% 8.1 mph SSW13.0 kmh SSW 11.5 mph18.5 kmh 29.76 in1007.8 mb - 0.00 in0.0 mm 0.00 in0.0 mm
04:40 PM 37.0°F2.8°C 31.4°F-0.3°C 80% 8.1 mph WSW13.0 kmh WSW 11.5 mph18.5 kmh 29.76 in1007.8 mb - 0.00 in0.0 mm 0.00 in0.0 mm
04:50 PM 37.0°F2.8°C 31.4°F-0.3°C 80% 8.1 mph S13.0 kmh S 15.0 mph24.1 kmh 29.76 in1007.8 mb - 0.00 in0.0 mm 0.00 in0.0 mm
05:00 PM 37.0°F2.8°C 31.4°F-0.3°C 80% 8.1 mph SSW13.0 kmh SSW 11.5 mph18.5 kmh 29.76 in1007.8 mb - 0.00 in0.0 mm 0.00 in0.0 mm
05:10 PM 36.9°F2.7°C 31.3°F-0.4°C 80% 6.9 mph SW11.1 kmh SW 15.0 mph24.1 kmh 29.76 in1007.8 mb - 0.00 in0.0 mm 0.00 in0.0 mm
05:20 PM 36.9°F2.7°C 31.6°F-0.2°C 81% 4.6 mph SSW7.4 kmh SSW 6.9 mph11.1 kmh 29.75 in1007.5 mb - 0.00 in0.0 mm 0.00 in0.0 mm
05:30 PM 36.9°F2.7°C 31.7°F-0.2°C 81% 5.8 mph SSW9.3 kmh SSW 10.4 mph16.7 kmh 29.75 in1007.5 mb - 0.00 in0.0 mm 0.00 in0.0 mm
05:40 PM 36.8°F2.7°C 31.5°F-0.3°C 81% 8.1 mph SSW13.0 kmh SSW 10.4 mph16.7 kmh 29.75 in1007.5 mb - 0.00 in0.0 mm 0.00 in0.0 mm
05:50 PM 36.7°F2.6°C 31.7°F-0.2°C 82% 4.6 mph WSW7.4 kmh WSW 8.1 mph13.0 kmh 29.74 in1007.1 mb - 0.00 in0.0 mm 0.00 in0.0 mm
06:00 PM 36.6°F2.6°C 31.6°F-0.2°C 82% 5.8 mph S9.3 kmh S 11.5 mph18.5 kmh 29.73 in1006.8 mb - 0.00 in0.0 mm 0.00 in0.0 mm
06:10 PM 36.5°F2.5°C 31.5°F-0.3°C 82% 8.1 mph S13.0 kmh S 11.5 mph18.5 kmh 29.73 in1006.8 mb - 0.00 in0.0 mm 0.00 in0.0 mm
06:20 PM 36.3°F2.4°C 31.4°F-0.3°C 82% 5.8 mph S9.3 kmh S 9.2 mph14.8 kmh 29.73 in1006.8 mb - 0.00 in0.0 mm 0.00 in0.0 mm
06:30 PM 36.1°F2.3°C 31.1°F-0.5°C 82% 8.1 mph SSW13.0 kmh SSW 13.8 mph22.2 kmh 29.73 in1006.8 mb - 0.00 in0.0 mm 0.00 in0.0 mm
06:40 PM 36.0°F2.2°C 31.3°F-0.4°C 83% 9.2 mph SSW14.8 kmh SSW 15.0 mph24.1 kmh 29.73 in1006.8 mb - 0.00 in0.0 mm 0.00 in0.0 mm
06:50 PM 35.9°F2.2°C 31.2°F-0.4°C 83% 10.4 mph S16.7 kmh S 13.8 mph22.2 kmh 29.72 in1006.4 mb - 0.00 in0.0 mm 0.00 in0.0 mm
07:00 PM 35.7°F2.1°C 31.0°F-0.6°C 83% 9.2 mph S14.8 kmh S 8.1 mph13.0 kmh 29.71 in1006.1 mb - 0.00 in0.0 mm 0.00 in0.0 mm
07:10 PM 35.6°F2.0°C 31.2°F-0.4°C 84% 6.9 mph S11.1 kmh S 11.5 mph18.5 kmh 29.71 in1006.1 mb - 0.00 in0.0 mm 0.00 in0.0 mm
07:20 PM 35.2°F1.8°C 31.5°F-0.3°C 86% 5.8 mph S9.3 kmh S 8.1 mph13.0 kmh 29.71 in1006.1 mb - 0.00 in0.0 mm 0.00 in0.0 mm
07:30 PM 35.1°F1.7°C 31.3°F-0.4°C 86% 12.7 mph S20.4 kmh S 19.6 mph31.5 kmh 29.71 in1006.1 mb - 0.00 in0.0 mm 0.00 in0.0 mm
07:40 PM 35.2°F1.8°C 31.4°F-0.3°C 86% 8.1 mph S13.0 kmh S 11.5 mph18.5 kmh 29.70 in1005.8 mb - 0.00 in0.0 mm 0.00 in0.0 mm
07:50 PM 35.4°F1.9°C 31.6°F-0.2°C 86% 6.9 mph S11.1 kmh S 11.5 mph18.5 kmh 29.69 in1005.4 mb - 0.00 in0.0 mm 0.00 in0.0 mm
08:00 PM 35.4°F1.9°C 31.9°F-0.1°C 87% 8.1 mph S13.0 kmh S 11.5 mph18.5 kmh 29.68 in1005.1 mb - 0.00 in0.0 mm 0.00 in0.0 mm
08:10 PM 35.0°F1.7°C 31.5°F-0.3°C 87% 10.4 mph SSW16.7 kmh SSW 13.8 mph22.2 kmh 29.68 in1005.1 mb - 0.00 in0.0 mm 0.00 in0.0 mm
08:20 PM 34.4°F1.3°C 31.5°F-0.3°C 89% 10.4 mph SW16.7 kmh SW 15.0 mph24.1 kmh 29.67 in1004.7 mb - 0.01 in0.3 mm 0.01 in0.3 mm
08:30 PM 33.9°F1.1°C 31.3°F-0.4°C 90% 9.2 mph S14.8 kmh S 13.8 mph22.2 kmh 29.66 in1004.4 mb - 0.00 in0.0 mm 0.01 in0.3 mm
08:40 PM 33.4°F0.8°C 31.4°F-0.3°C 92% 9.2 mph SSW14.8 kmh SSW 15.0 mph24.1 kmh 29.66 in1004.4 mb - 0.00 in0.0 mm 0.01 in0.3 mm
08:50 PM 33.3°F0.7°C 31.5°F-0.3°C 93% 6.9 mph S11.1 kmh S 9.2 mph14.8 kmh 29.66 in1004.4 mb - 0.00 in0.0 mm 0.01 in0.3 mm
09:00 PM 33.2°F0.7°C 31.4°F-0.3°C 93% 6.9 mph S11.1 kmh S 8.1 mph13.0 kmh 29.65 in1004.1 mb - 0.00 in0.0 mm 0.01 in0.3 mm
09:10 PM 33.2°F0.7°C 31.7°F-0.2°C 94% 5.8 mph S9.3 kmh S 9.2 mph14.8 kmh 29.65 in1004.1 mb - 0.00 in0.0 mm 0.01 in0.3 mm
09:20 PM 33.1°F0.6°C 31.6°F-0.2°C 94% 8.1 mph SSE13.0 kmh SSE 11.5 mph18.5 kmh 29.65 in1004.1 mb - 0.00 in0.0 mm 0.01 in0.3 mm
09:30 PM 33.2°F0.7°C 31.7°F-0.2°C 94% 9.2 mph S14.8 kmh S 11.5 mph18.5 kmh 29.65 in1004.1 mb - 0.00 in0.0 mm 0.01 in0.3 mm
09:40 PM 33.2°F0.7°C 31.7°F-0.2°C 94% 9.2 mph S14.8 kmh S 12.7 mph20.4 kmh 29.65 in1004.1 mb - 0.01 in0.3 mm 0.02 in0.5 mm
09:50 PM 33.2°F0.7°C 31.6°F-0.2°C 94% 10.4 mph S16.7 kmh S 11.5 mph18.5 kmh 29.65 in1004.1 mb - 0.01 in0.3 mm 0.02 in0.5 mm
10:00 PM 33.0°F0.6°C 31.5°F-0.3°C 94% 9.2 mph S14.8 kmh S 12.7 mph20.4 kmh 29.65 in1004.1 mb - 0.00 in0.0 mm 0.02 in0.5 mm
10:10 PM 32.9°F0.5°C 31.3°F-0.4°C 94% 5.8 mph S9.3 kmh S 9.2 mph14.8 kmh 29.65 in1004.1 mb - 0.00 in0.0 mm 0.02 in0.5 mm
10:20 PM 32.7°F0.4°C 31.2°F-0.4°C 94% 8.1 mph S13.0 kmh S 12.7 mph20.4 kmh 29.64 in1003.7 mb - 0.00 in0.0 mm 0.02 in0.5 mm
10:30 PM 32.6°F0.3°C 31.3°F-0.4°C 95% 9.2 mph S14.8 kmh S 15.0 mph24.1 kmh 29.64 in1003.7 mb - 0.00 in0.0 mm 0.02 in0.5 mm
10:40 PM 32.5°F0.3°C 31.2°F-0.4°C 95% 11.5 mph S18.5 kmh S 13.8 mph22.2 kmh 29.64 in1003.7 mb - 0.00 in0.0 mm 0.02 in0.5 mm
10:50 PM 32.4°F0.2°C 31.1°F-0.5°C 95% 5.8 mph S9.3 kmh S 11.5 mph18.5 kmh 29.64 in1003.7 mb - 0.00 in0.0 mm 0.02 in0.5 mm
11:00 PM 32.4°F0.2°C 31.1°F-0.5°C 95% 8.1 mph S13.0 kmh S 11.5 mph18.5 kmh 29.64 in1003.7 mb - 0.00 in0.0 mm 0.02 in0.5 mm
11:10 PM 32.3°F0.2°C 31.0°F-0.6°C 95% 8.1 mph SSE13.0 kmh SSE 11.5 mph18.5 kmh 29.63 in1003.4 mb - 0.00 in0.0 mm 0.02 in0.5 mm
11:20 PM 32.2°F0.1°C 30.9°F-0.6°C 95% 10.4 mph SSE16.7 kmh SSE 19.6 mph31.5 kmh 29.63 in1003.4 mb - 0.00 in0.0 mm 0.02 in0.5 mm
11:30 PM 32.1°F0.1°C 31.1°F-0.5°C 96% 9.2 mph SSE14.8 kmh SSE 11.5 mph18.5 kmh 29.63 in1003.4 mb - 0.00 in0.0 mm 0.02 in0.5 mm
11:40 PM 32.0°F0.0°C 31.0°F-0.6°C 96% 9.2 mph S14.8 kmh S 17.3 mph27.8 kmh 29.63 in1003.4 mb - 0.00 in0.0 mm 0.02 in0.5 mm
11:50 PM 32.0°F0.0°C 31.0°F-0.6°C 96% 9.2 mph SSE14.8 kmh SSE 11.5 mph18.5 kmh 29.63 in1003.4 mb - 0.00 in0.0 mm 0.02 in0.5 mm